Time;durP1;ratioP1;P1;durP2;ratioP2;P2;SDS_P1;SDS_P2;PMS_P1;PMS_P2;Temp;Humidity;BMP_temperature;BMP_pressure;BME280_temperature;BME280_humidity;BME280_pressure;Samples;Min_cycle;Max_cycle;Signal;HPM_P1;HPM_P2
2022/10/10 00:01:33;;;;;;;10.93;4.00;;;;;;;;;;4946346;28;20062;-75
2022/10/10 00:04:00;;;;;;;6.68;3.67;;;;;;;;;;4944289;28;20117;-75
2022/10/10 00:06:28;;;;;;;8.60;3.63;;;;;;;;;;4943157;28;20059;-75
2022/10/10 00:08:56;;;;;;;13.73;4.05;;;;;;;;;;4949072;28;20058;-75
2022/10/10 00:11:24;;;;;;;8.00;3.30;;;;;;;;;;4961848;28;20063;-75
2022/10/10 00:13:51;;;;;;;8.38;3.78;;;;;;;;;;4948097;28;20045;-75
2022/10/10 00:16:20;;;;;;;7.38;3.47;;;;;;;;;;4965371;28;20501;-75
2022/10/10 00:18:48;;;;;;;8.50;4.40;;;;;;;;;;4949444;28;20047;-76
2022/10/10 00:21:15;;;;;;;5.40;3.47;;;;;;;;;;4949194;28;20058;-75
2022/10/10 00:23:42;;;;;;;7.28;3.50;;;;;;;;;;4946707;28;20051;-75
2022/10/10 00:26:10;;;;;;;7.85;3.78;;;;;;;;;;4946433;28;20055;-75
2022/10/10 00:28:38;;;;;;;12.38;4.35;;;;;;;;;;4944998;28;20055;-75
2022/10/10 00:31:05;;;;;;;7.97;3.90;;;;;;;;;;4943705;28;20117;-75
2022/10/10 00:33:34;;;;;;;7.22;4.00;;;;;;;;;;4947555;28;20141;-75
2022/10/10 00:36:01;;;;;;;9.48;4.70;;;;;;;;;;4949910;28;20066;-76
2022/10/10 00:38:28;;;;;;;6.72;3.90;;;;;;;;;;4948166;28;20063;-75
2022/10/10 00:40:56;;;;;;;9.27;3.60;;;;;;;;;;4949385;28;20051;-76
2022/10/10 00:43:24;;;;;;;7.78;4.03;;;;;;;;;;4964354;28;20054;-75
2022/10/10 00:45:51;;;;;;;7.75;3.97;;;;;;;;;;4938927;28;20047;-75
2022/10/10 00:48:20;;;;;;;7.88;3.83;;;;;;;;;;4949043;28;20055;-75
2022/10/10 00:50:51;;;;;;;13.88;4.00;;;;;;;;;;4950759;28;20060;-75
2022/10/10 00:53:21;;;;;;;8.18;4.40;;;;;;;;;;4947321;28;20051;-76
2022/10/10 00:55:48;;;;;;;9.40;4.13;;;;;;;;;;4943204;28;20050;-76
2022/10/10 00:58:16;;;;;;;8.35;3.80;;;;;;;;;;4944166;28;20513;-76
2022/10/10 01:00:43;;;;;;;8.32;4.35;;;;;;;;;;4944814;28;20050;-75
2022/10/10 01:03:10;;;;;;;9.82;4.20;;;;;;;;;;4946829;28;20077;-75
2022/10/10 01:05:38;;;;;;;9.85;4.35;;;;;;;;;;4947243;28;20526;-75
2022/10/10 01:08:07;;;;;;;6.75;4.38;;;;;;;;;;4944229;28;20058;-75
2022/10/10 01:10:36;;;;;;;7.80;3.92;;;;;;;;;;4949144;28;20090;-75
2022/10/10 01:13:10;;;;;;;7.90;4.30;;;;;;;;;;4947548;28;20525;-75
2022/10/10 01:15:43;;;;;;;8.18;4.22;;;;;;;;;;4945947;28;20880;-75
2022/10/10 01:18:14;;;;;;;6.63;3.70;;;;;;;;;;4945486;28;20518;-75
2022/10/10 01:20:50;;;;;;;10.93;4.35;;;;;;;;;;4945438;28;20047;-75
2022/10/10 01:23:29;;;;;;;8.43;4.22;;;;;;;;;;4962577;28;20046;-75
2022/10/10 01:26:02;;;;;;;13.35;4.28;;;;;;;;;;4947629;28;20070;-75
2022/10/10 01:28:39;;;;;;;8.30;4.35;;;;;;;;;;4946641;28;20086;-75
2022/10/10 01:31:09;;;;;;;8.60;4.00;;;;;;;;;;4946468;28;20059;-75
2022/10/10 01:33:39;;;;;;;8.55;4.15;;;;;;;;;;4944797;28;20043;-75
2022/10/10 01:36:10;;;;;;;9.73;4.20;;;;;;;;;;4948356;28;20047;-76
2022/10/10 01:38:42;;;;;;;9.68;4.35;;;;;;;;;;4948123;28;20405;-75
2022/10/10 01:41:11;;;;;;;8.07;4.45;;;;;;;;;;4947272;28;20050;-75
2022/10/10 01:43:40;;;;;;;7.82;3.90;;;;;;;;;;4947970;28;20059;-75
2022/10/10 01:46:10;;;;;;;7.93;4.47;;;;;;;;;;4947812;28;20050;-75
2022/10/10 01:48:39;;;;;;;10.93;4.30;;;;;;;;;;4946031;28;20063;-75
2022/10/10 01:51:14;;;;;;;10.63;4.45;;;;;;;;;;4946565;28;20046;-75
2022/10/10 01:53:44;;;;;;;7.53;4.60;;;;;;;;;;4945930;28;20052;-75
2022/10/10 01:56:18;;;;;;;10.30;4.55;;;;;;;;;;4947842;28;20051;-75
2022/10/10 01:59:01;;;;;;;10.13;4.45;;;;;;;;;;4951232;28;20061;-75
2022/10/10 02:01:34;;;;;;;14.30;4.45;;;;;;;;;;4950995;28;20134;-76
2022/10/10 02:04:06;;;;;;;9.80;4.05;;;;;;;;;;4948569;28;20390;-75
2022/10/10 02:06:37;;;;;;;11.13;4.30;;;;;;;;;;4950996;28;20674;-75
2022/10/10 02:09:07;;;;;;;8.75;4.07;;;;;;;;;;4938004;29;20059;-75
2022/10/10 02:11:36;;;;;;;9.05;4.32;;;;;;;;;;4925684;29;20655;-75
2022/10/10 02:14:09;;;;;;;7.95;4.60;;;;;;;;;;4926055;29;20052;-75
2022/10/10 02:16:38;;;;;;;7.30;3.70;;;;;;;;;;4922349;29;20055;-75
2022/10/10 02:19:07;;;;;;;8.73;4.18;;;;;;;;;;4927666;29;20503;-75
2022/10/10 02:21:35;;;;;;;8.73;4.32;;;;;;;;;;4926438;29;20048;-75
2022/10/10 02:24:04;;;;;;;9.02;4.80;;;;;;;;;;4926097;29;20047;-75
2022/10/10 02:26:32;;;;;;;10.02;4.55;;;;;;;;;;4927793;29;20056;-76
2022/10/10 02:29:01;;;;;;;7.80;4.25;;;;;;;;;;4927869;29;20063;-75
2022/10/10 02:31:31;;;;;;;7.82;4.18;;;;;;;;;;4928480;29;20490;-75
2022/10/10 02:34:01;;;;;;;13.15;4.75;;;;;;;;;;4926090;29;20566;-75
2022/10/10 02:36:29;;;;;;;5.80;3.88;;;;;;;;;;4929790;29;20102;-76
2022/10/10 02:38:57;;;;;;;8.20;4.00;;;;;;;;;;4927845;29;20095;-75
2022/10/10 02:41:24;;;;;;;11.75;4.35;;;;;;;;;;4928992;29;20056;-75
2022/10/10 02:43:52;;;;;;;6.70;4.28;;;;;;;;;;4928791;29;20102;-75
2022/10/10 02:46:19;;;;;;;7.38;4.40;;;;;;;;;;4927470;29;20063;-75
2022/10/10 02:48:48;;;;;;;10.30;4.78;;;;;;;;;;4928628;29;20100;-75
2022/10/10 02:51:16;;;;;;;8.63;4.40;;;;;;;;;;4927543;29;20051;-75
2022/10/10 02:53:43;;;;;;;8.98;4.53;;;;;;;;;;4924012;29;20067;-75
2022/10/10 02:56:10;;;;;;;12.18;4.60;;;;;;;;;;4926140;29;20052;-75
2022/10/10 02:58:38;;;;;;;7.75;4.70;;;;;;;;;;4928894;29;20063;-75
2022/10/10 03:01:05;;;;;;;7.95;4.43;;;;;;;;;;4929315;29;20055;-75
2022/10/10 03:03:32;;;;;;;10.32;4.90;;;;;;;;;;4926900;29;21264;-75
2022/10/10 03:06:02;;;;;;;11.05;4.50;;;;;;;;;;4925879;29;20070;-75
2022/10/10 03:08:29;;;;;;;10.82;4.78;;;;;;;;;;4931888;28;20051;-75
2022/10/10 03:10:57;;;;;;;8.52;4.55;;;;;;;;;;4944579;28;20047;-75
2022/10/10 03:13:25;;;;;;;12.52;5.10;;;;;;;;;;4949762;28;20050;-75
2022/10/10 03:15:52;;;;;;;9.82;4.85;;;;;;;;;;4948204;28;20559;-75
2022/10/10 03:18:19;;;;;;;9.85;4.68;;;;;;;;;;4951254;28;20827;-75
2022/10/10 03:20:47;;;;;;;9.40;4.80;;;;;;;;;;4946876;28;20047;-75
2022/10/10 03:23:15;;;;;;;9.32;4.95;;;;;;;;;;4950198;28;20130;-75
2022/10/10 03:25:43;;;;;;;8.90;4.47;;;;;;;;;;4949928;28;20106;-75
2022/10/10 03:28:10;;;;;;;8.05;4.75;;;;;;;;;;4951109;28;20691;-75
2022/10/10 03:30:38;;;;;;;6.40;4.30;;;;;;;;;;4950694;28;20051;-75
2022/10/10 03:33:05;;;;;;;8.82;5.10;;;;;;;;;;4950362;28;20051;-75
2022/10/10 03:35:33;;;;;;;12.23;5.45;;;;;;;;;;4949545;28;20652;-75
2022/10/10 03:38:00;;;;;;;10.43;5.57;;;;;;;;;;4951067;28;20094;-75
2022/10/10 03:40:29;;;;;;;8.95;4.72;;;;;;;;;;4951044;28;20058;-75
2022/10/10 03:42:56;;;;;;;7.78;5.10;;;;;;;;;;4950009;28;20049;-75
2022/10/10 03:45:23;;;;;;;8.40;5.03;;;;;;;;;;4951088;28;20057;-75
2022/10/10 03:47:51;;;;;;;11.32;5.20;;;;;;;;;;4965411;28;20051;-75
2022/10/10 03:50:18;;;;;;;11.38;5.00;;;;;;;;;;4950656;28;20058;-75
2022/10/10 03:52:45;;;;;;;10.00;5.10;;;;;;;;;;4950153;28;20047;-75
2022/10/10 03:55:13;;;;;;;10.10;5.05;;;;;;;;;;4949532;28;20046;-75
2022/10/10 03:57:41;;;;;;;7.43;5.70;;;;;;;;;;4949994;28;20058;-75
2022/10/10 04:00:09;;;;;;;9.65;5.35;;;;;;;;;;4949703;28;20113;-75
2022/10/10 04:02:36;;;;;;;12.27;5.43;;;;;;;;;;4949577;28;20062;-75
2022/10/10 04:05:04;;;;;;;8.15;4.78;;;;;;;;;;4950319;28;20050;-75
2022/10/10 04:07:31;;;;;;;8.18;5.10;;;;;;;;;;4946393;28;20063;-75
2022/10/10 04:09:58;;;;;;;10.50;5.05;;;;;;;;;;4950004;28;20054;-75
2022/10/10 04:12:26;;;;;;;10.35;5.25;;;;;;;;;;4951649;28;20108;-75
2022/10/10 04:14:54;;;;;;;9.85;5.30;;;;;;;;;;4950615;28;20054;-75
2022/10/10 04:17:22;;;;;;;8.95;4.93;;;;;;;;;;4948030;28;20178;-75
2022/10/10 04:19:49;;;;;;;10.23;5.43;;;;;;;;;;4962623;28;20061;-75
2022/10/10 04:22:16;;;;;;;10.10;5.75;;;;;;;;;;4942273;28;20058;-75
2022/10/10 04:24:44;;;;;;;8.05;5.43;;;;;;;;;;4947455;28;20054;-75
2022/10/10 04:27:11;;;;;;;12.43;6.68;;;;;;;;;;4947184;28;20533;-75
2022/10/10 04:29:38;;;;;;;9.73;5.00;;;;;;;;;;4948207;28;20057;-75
2022/10/10 04:32:07;;;;;;;8.98;5.10;;;;;;;;;;4945109;28;20221;-75
2022/10/10 04:34:34;;;;;;;8.98;4.90;;;;;;;;;;4947846;28;20125;-75
2022/10/10 04:37:01;;;;;;;11.68;5.28;;;;;;;;;;4948395;28;20425;-75
2022/10/10 04:39:29;;;;;;;9.68;5.30;;;;;;;;;;4953364;28;20085;-75
2022/10/10 04:41:56;;;;;;;11.07;5.25;;;;;;;;;;4953714;28;20622;-75
2022/10/10 04:44:23;;;;;;;9.18;4.93;;;;;;;;;;4965013;28;20051;-75
2022/10/10 04:46:50;;;;;;;12.77;5.40;;;;;;;;;;4948935;28;20059;-75
2022/10/10 04:49:19;;;;;;;9.85;4.90;;;;;;;;;;4963679;28;20512;-75
2022/10/10 04:51:46;;;;;;;11.15;6.07;;;;;;;;;;4948291;28;20058;-75
2022/10/10 04:54:14;;;;;;;8.85;5.05;;;;;;;;;;4948037;28;20149;-75
2022/10/10 04:56:42;;;;;;;10.43;5.57;;;;;;;;;;4947471;28;20063;-75
2022/10/10 04:59:09;;;;;;;9.45;5.40;;;;;;;;;;4949098;28;20057;-75
2022/10/10 05:01:36;;;;;;;9.65;5.50;;;;;;;;;;4947854;28;20050;-75
2022/10/10 05:04:03;;;;;;;12.00;5.95;;;;;;;;;;4949354;28;20047;-75
2022/10/10 05:06:32;;;;;;;11.82;5.72;;;;;;;;;;4948522;28;20498;-75
2022/10/10 05:08:59;;;;;;;12.27;6.15;;;;;;;;;;4948113;28;20055;-75
2022/10/10 05:11:27;;;;;;;9.35;5.25;;;;;;;;;;4948935;28;20065;-75
2022/10/10 05:13:54;;;;;;;10.98;6.03;;;;;;;;;;4948595;28;20490;-75
2022/10/10 05:16:21;;;;;;;10.57;5.20;;;;;;;;;;4950119;28;20055;-75
2022/10/10 05:18:48;;;;;;;12.45;5.65;;;;;;;;;;4942054;28;20052;-75
2022/10/10 05:21:16;;;;;;;9.50;5.82;;;;;;;;;;4946431;28;20069;-76
2022/10/10 05:23:44;;;;;;;11.45;5.78;;;;;;;;;;4944443;28;20514;-77
2022/10/10 05:26:12;;;;;;;13.60;6.25;;;;;;;;;;4948211;28;20058;-76
2022/10/10 05:28:39;;;;;;;11.57;5.40;;;;;;;;;;4947540;28;20067;-76
2022/10/10 05:31:07;;;;;;;16.23;5.63;;;;;;;;;;4949755;28;20066;-75
2022/10/10 05:33:34;;;;;;;9.13;5.10;;;;;;;;;;4952695;28;20116;-77
2022/10/10 05:36:03;;;;;;;10.65;5.80;;;;;;;;;;4952674;28;20050;-75
2022/10/10 05:38:30;;;;;;;9.50;5.78;;;;;;;;;;4953018;28;20512;-74
2022/10/10 05:40:59;;;;;;;10.10;5.57;;;;;;;;;;4949005;28;20141;-75
2022/10/10 05:43:26;;;;;;;13.50;6.32;;;;;;;;;;4944430;28;20073;-75
2022/10/10 05:45:53;;;;;;;8.80;5.85;;;;;;;;;;4950397;28;20059;-75
2022/10/10 05:48:21;;;;;;;8.52;5.18;;;;;;;;;;4952075;28;20073;-75
2022/10/10 05:50:49;;;;;;;10.77;5.10;;;;;;;;;;4950689;28;20059;-75
2022/10/10 05:53:16;;;;;;;12.10;5.90;;;;;;;;;;4951400;28;20066;-75
2022/10/10 05:55:44;;;;;;;11.63;5.70;;;;;;;;;;4948672;28;20061;-75
2022/10/10 05:58:13;;;;;;;12.48;5.85;;;;;;;;;;4950097;28;20055;-75
2022/10/10 06:00:40;;;;;;;10.57;5.55;;;;;;;;;;4950672;28;20108;-75
2022/10/10 06:03:11;;;;;;;10.57;5.85;;;;;;;;;;4948927;28;20070;-75
2022/10/10 06:05:38;;;;;;;11.88;5.90;;;;;;;;;;4949800;28;20086;-75
2022/10/10 06:08:05;;;;;;;9.85;5.65;;;;;;;;;;4947198;28;20061;-76
2022/10/10 06:10:34;;;;;;;9.43;5.80;;;;;;;;;;4956600;28;20086;-76
2022/10/10 06:13:01;;;;;;;11.05;5.75;;;;;;;;;;4947051;28;20105;-76
2022/10/10 06:15:30;;;;;;;15.73;5.80;;;;;;;;;;4950246;28;20117;-75
2022/10/10 06:17:58;;;;;;;11.35;5.60;;;;;;;;;;4951144;28;20047;-76
2022/10/10 06:20:25;;;;;;;10.45;6.00;;;;;;;;;;4949453;28;20051;-76
2022/10/10 06:22:52;;;;;;;9.43;5.72;;;;;;;;;;4950031;28;20062;-76
2022/10/10 06:25:19;;;;;;;7.68;5.28;;;;;;;;;;4950112;28;20050;-76
2022/10/10 06:27:47;;;;;;;13.65;5.50;;;;;;;;;;4947062;28;20038;-76
2022/10/10 06:30:15;;;;;;;10.23;5.35;;;;;;;;;;4947498;28;20058;-76
2022/10/10 06:32:44;;;;;;;9.13;5.32;;;;;;;;;;4951338;28;20093;-75
2022/10/10 06:35:11;;;;;;;9.30;5.28;;;;;;;;;;4948925;28;20043;-76
2022/10/10 06:37:38;;;;;;;11.07;5.90;;;;;;;;;;4967477;28;20490;-76
2022/10/10 06:40:06;;;;;;;10.68;5.40;;;;;;;;;;4949705;28;20711;-76
2022/10/10 06:42:34;;;;;;;9.07;5.50;;;;;;;;;;4951901;28;20138;-76
2022/10/10 06:45:01;;;;;;;15.10;5.72;;;;;;;;;;4951315;28;20458;-75
2022/10/10 06:47:28;;;;;;;13.07;6.00;;;;;;;;;;4949362;28;20719;-75
2022/10/10 06:49:57;;;;;;;11.10;6.05;;;;;;;;;;4949761;28;20065;-75
2022/10/10 06:52:24;;;;;;;13.32;6.25;;;;;;;;;;4965359;28;20510;-75
2022/10/10 06:54:52;;;;;;;12.80;5.82;;;;;;;;;;4950977;28;20557;-76
2022/10/10 06:57:19;;;;;;;14.15;6.18;;;;;;;;;;4950835;28;20698;-76
2022/10/10 06:59:46;;;;;;;11.07;5.20;;;;;;;;;;4948147;28;20066;-76
2022/10/10 07:02:14;;;;;;;10.32;5.60;;;;;;;;;;4949757;28;20141;-76
2022/10/10 07:04:41;;;;;;;15.80;6.28;;;;;;;;;;4942712;28;20787;-75
2022/10/10 07:07:13;;;;;;;10.43;5.22;;;;;;;;;;4962070;28;20047;-75
2022/10/10 07:09:41;;;;;;;16.25;6.75;;;;;;;;;;4944538;28;20054;-76
2022/10/10 07:12:09;;;;;;;13.60;5.78;;;;;;;;;;4948652;28;20118;-75
2022/10/10 07:14:36;;;;;;;16.63;6.07;;;;;;;;;;4948201;28;20129;-76
2022/10/10 07:17:03;;;;;;;11.00;6.10;;;;;;;;;;4949821;28;20057;-76
2022/10/10 07:19:30;;;;;;;12.23;6.00;;;;;;;;;;4947558;28;20059;-76
2022/10/10 07:21:58;;;;;;;13.30;5.55;;;;;;;;;;4949548;28;20595;-76
2022/10/10 07:24:26;;;;;;;8.98;6.07;;;;;;;;;;4947256;28;20050;-75
2022/10/10 07:26:55;;;;;;;14.07;6.82;;;;;;;;;;4948698;28;20050;-76
2022/10/10 07:29:23;;;;;;;15.55;5.95;;;;;;;;;;4948784;28;20050;-76
2022/10/10 07:31:50;;;;;;;11.82;6.13;;;;;;;;;;4948788;28;20057;-76
2022/10/10 07:34:18;;;;;;;11.73;6.30;;;;;;;;;;4949198;28;20062;-76
2022/10/10 07:36:49;;;;;;;16.40;6.63;;;;;;;;;;4947721;28;20109;-76
2022/10/10 07:39:19;;;;;;;10.95;6.18;;;;;;;;;;4947808;28;20057;-76
2022/10/10 07:41:48;;;;;;;11.43;5.78;;;;;;;;;;4948861;28;20051;-75
2022/10/10 07:44:15;;;;;;;12.02;6.75;;;;;;;;;;4948398;28;20449;-76
2022/10/10 07:46:43;;;;;;;11.45;6.10;;;;;;;;;;4943637;28;20051;-76
2022/10/10 07:49:10;;;;;;;12.02;6.35;;;;;;;;;;4947590;28;20434;-75
2022/10/10 07:51:37;;;;;;;10.27;6.60;;;;;;;;;;4947246;28;20683;-76
2022/10/10 07:54:05;;;;;;;10.13;6.00;;;;;;;;;;4946842;28;20055;-76
2022/10/10 07:56:32;;;;;;;12.95;6.40;;;;;;;;;;4949442;28;20051;-76
2022/10/10 07:59:01;;;;;;;10.50;6.13;;;;;;;;;;4948559;28;20059;-75
2022/10/10 08:01:28;;;;;;;14.25;6.25;;;;;;;;;;4947862;28;20082;-76
2022/10/10 08:03:56;;;;;;;15.38;7.28;;;;;;;;;;4947828;28;20516;-77
2022/10/10 08:06:23;;;;;;;20.05;6.70;;;;;;;;;;4947696;28;20059;-76
2022/10/10 08:08:51;;;;;;;14.77;7.03;;;;;;;;;;4946568;28;20100;-76
2022/10/10 08:11:18;;;;;;;12.63;6.95;;;;;;;;;;4947841;28;20059;-75
2022/10/10 08:13:45;;;;;;;10.90;6.70;;;;;;;;;;4948282;28;20050;-75
2022/10/10 08:16:14;;;;;;;17.98;6.90;;;;;;;;;;4947280;28;20055;-76
2022/10/10 08:18:42;;;;;;;13.63;6.97;;;;;;;;;;4946158;28;20046;-76
2022/10/10 08:21:11;;;;;;;16.52;7.63;;;;;;;;;;4946368;28;20058;-76
2022/10/10 08:23:38;;;;;;;11.50;6.90;;;;;;;;;;4946827;28;20062;-76
2022/10/10 08:26:06;;;;;;;12.77;7.65;;;;;;;;;;4946218;28;20043;-76
2022/10/10 08:28:34;;;;;;;13.30;7.60;;;;;;;;;;4943191;28;20051;-75
2022/10/10 08:31:05;;;;;;;22.25;7.50;;;;;;;;;;4949098;28;20086;-75
2022/10/10 08:33:33;;;;;;;13.35;7.20;;;;;;;;;;4942889;28;20135;-76
2022/10/10 08:36:04;;;;;;;15.45;7.40;;;;;;;;;;4943701;28;20050;-76
2022/10/10 08:38:32;;;;;;;12.07;7.57;;;;;;;;;;4946129;28;20047;-76
2022/10/10 08:41:01;;;;;;;14.68;8.30;;;;;;;;;;4946609;28;20046;-76
2022/10/10 08:43:32;;;;;;;14.40;7.82;;;;;;;;;;4947471;28;20054;-77
2022/10/10 08:46:04;;;;;;;13.48;7.55;;;;;;;;;;4943295;28;20135;-76
2022/10/10 08:48:31;;;;;;;17.13;8.02;;;;;;;;;;4946467;28;20540;-76
2022/10/10 08:51:01;;;;;;;15.15;8.18;;;;;;;;;;4948304;28;20065;-76
2022/10/10 08:53:30;;;;;;;14.45;8.00;;;;;;;;;;4948253;28;20143;-76
2022/10/10 08:55:58;;;;;;;23.75;9.82;;;;;;;;;;4948097;28;20047;-76
2022/10/10 08:58:28;;;;;;;15.13;7.90;;;;;;;;;;4947157;28;20047;-77
2022/10/10 09:01:02;;;;;;;15.63;8.88;;;;;;;;;;4947741;28;20082;-76
2022/10/10 09:03:33;;;;;;;13.30;8.18;;;;;;;;;;4946164;28;20047;-76
2022/10/10 09:06:08;;;;;;;16.40;7.78;;;;;;;;;;4948078;28;20046;-76
2022/10/10 09:08:41;;;;;;;15.48;7.63;;;;;;;;;;4945660;28;20125;-76
2022/10/10 09:11:12;;;;;;;14.80;8.80;;;;;;;;;;4947390;28;20059;-76
2022/10/10 09:13:42;;;;;;;19.48;8.80;;;;;;;;;;4943407;28;20046;-76
2022/10/10 09:16:15;;;;;;;18.05;8.32;;;;;;;;;;4946107;28;20050;-76
2022/10/10 09:18:51;;;;;;;13.82;8.13;;;;;;;;;;4965066;28;20059;-76
2022/10/10 09:21:23;;;;;;;18.95;8.05;;;;;;;;;;4948166;28;20069;-76
2022/10/10 09:23:51;;;;;;;13.00;7.80;;;;;;;;;;4946957;28;20058;-76
2022/10/10 09:26:21;;;;;;;16.17;7.35;;;;;;;;;;4945816;28;20062;-75
2022/10/10 09:28:51;;;;;;;13.85;7.80;;;;;;;;;;4944322;28;20418;-75
2022/10/10 09:31:20;;;;;;;15.02;7.38;;;;;;;;;;4947139;28;20061;-76
2022/10/10 09:33:52;;;;;;;18.95;8.25;;;;;;;;;;4948700;28;20065;-76
2022/10/10 09:36:24;;;;;;;14.40;7.72;;;;;;;;;;4943468;28;20580;-76
2022/10/10 09:38:53;;;;;;;12.10;7.07;;;;;;;;;;4947578;28;20521;-76
2022/10/10 09:41:23;;;;;;;12.57;6.97;;;;;;;;;;4948290;28;20043;-76
2022/10/10 09:43:55;;;;;;;15.77;7.45;;;;;;;;;;4943743;28;20079;-75
2022/10/10 09:46:22;;;;;;;13.10;7.13;;;;;;;;;;4947370;28;20051;-75
2022/10/10 09:48:49;;;;;;;14.57;7.50;;;;;;;;;;4946113;28;20046;-76
2022/10/10 09:51:18;;;;;;;13.85;6.97;;;;;;;;;;4951888;28;20613;-76
2022/10/10 09:53:48;;;;;;;16.17;7.40;;;;;;;;;;4946304;28;20298;-76
2022/10/10 09:56:17;;;;;;;17.98;7.07;;;;;;;;;;4946191;28;20046;-76
2022/10/10 09:58:45;;;;;;;18.73;7.60;;;;;;;;;;4947489;28;20589;-75
2022/10/10 10:01:13;;;;;;;13.93;7.63;;;;;;;;;;4947292;28;20047;-75
2022/10/10 10:03:41;;;;;;;14.18;7.53;;;;;;;;;;4946248;28;20047;-76
2022/10/10 10:06:11;;;;;;;12.90;7.53;;;;;;;;;;4947843;28;20058;-76
2022/10/10 10:08:39;;;;;;;15.90;7.65;;;;;;;;;;4946240;28;20063;-76
2022/10/10 10:11:20;;;;;;;19.35;7.60;;;;;;;;;;4947429;28;20050;-76
2022/10/10 10:13:54;;;;;;;22.33;7.82;;;;;;;;;;4947316;28;20098;-76
2022/10/10 10:16:29;;;;;;;17.77;7.95;;;;;;;;;;4947882;28;20051;-76
2022/10/10 10:18:57;;;;;;;17.50;7.57;;;;;;;;;;4947569;28;20051;-76
2022/10/10 10:21:25;;;;;;;13.30;7.43;;;;;;;;;;4950176;28;20058;-76
2022/10/10 10:23:54;;;;;;;23.35;9.02;;;;;;;;;;4946615;28;20406;-76
2022/10/10 10:26:24;;;;;;;18.00;7.82;;;;;;;;;;4950870;28;20047;-76
2022/10/10 10:28:52;;;;;;;17.13;8.35;;;;;;;;;;4966941;28;20513;-75
2022/10/10 10:31:31;;;;;;;13.77;7.40;;;;;;;;;;4948697;28;20059;-75
2022/10/10 10:34:05;;;;;;;14.77;8.30;;;;;;;;;;4948672;28;20072;-76
2022/10/10 10:36:39;;;;;;;17.90;8.30;;;;;;;;;;4952552;28;20062;-75
2022/10/10 10:39:10;;;;;;;17.15;8.95;;;;;;;;;;4948213;28;20055;-75
2022/10/10 10:41:44;;;;;;;17.52;7.90;;;;;;;;;;4949389;28;20058;-75
2022/10/10 10:44:11;;;;;;;;;;;;;;;;;;4950190;28;20051;-75
2022/10/10 10:46:42;;;;;;;21.30;8.63;;;;;;;;;;4953929;28;19947;-76
2022/10/10 10:49:15;;;;;;;16.38;7.88;;;;;;;;;;4950840;28;20058;-76
2022/10/10 10:52:03;;;;;;;16.80;8.70;;;;;;;;;;4966920;28;20054;-75
2022/10/10 10:54:39;;;;;;;18.55;9.50;;;;;;;;;;4925316;28;20488;-75
2022/10/10 10:57:12;;;;;;;21.48;8.95;;;;;;;;;;4950000;28;20053;-76
2022/10/10 10:59:47;;;;;;;19.42;8.90;;;;;;;;;;4951047;28;20058;-76
2022/10/10 11:02:21;;;;;;;17.08;9.38;;;;;;;;;;4949562;28;20530;-76
2022/10/10 11:04:56;;;;;;;21.15;10.30;;;;;;;;;;4949401;28;20117;-76
2022/10/10 11:07:24;;;;;;;16.40;9.73;;;;;;;;;;4950992;28;20057;-75
2022/10/10 11:09:54;;;;;;;20.77;10.20;;;;;;;;;;4965001;28;20051;-75
2022/10/10 11:12:37;;;;;;;18.40;9.75;;;;;;;;;;4951266;28;20058;-75
2022/10/10 11:15:09;;;;;;;18.73;10.32;;;;;;;;;;4948776;28;20050;-75
2022/10/10 11:17:39;;;;;;;23.08;11.35;;;;;;;;;;4950074;28;20050;-76
2022/10/10 11:20:12;;;;;;;19.38;11.02;;;;;;;;;;4950110;28;20389;-75
2022/10/10 11:22:42;;;;;;;27.58;11.02;;;;;;;;;;4949485;28;20058;-75
2022/10/10 11:25:16;;;;;;;19.27;10.40;;;;;;;;;;4950910;28;20062;-75
2022/10/10 11:27:46;;;;;;;20.02;9.77;;;;;;;;;;4949763;28;20050;-74
2022/10/10 11:30:16;;;;;;;14.60;9.20;;;;;;;;;;4950518;28;20046;-75
2022/10/10 11:32:46;;;;;;;22.67;9.60;;;;;;;;;;4949480;28;20050;-76
2022/10/10 11:35:20;;;;;;;26.13;9.77;;;;;;;;;;4948181;28;20050;-76
2022/10/10 11:37:49;;;;;;;25.40;9.25;;;;;;;;;;4942623;28;20572;-76
2022/10/10 11:40:28;;;;;;;22.40;9.73;;;;;;;;;;4945995;28;20062;-76
2022/10/10 11:43:00;;;;;;;24.10;9.70;;;;;;;;;;4949716;28;20117;-76
2022/10/10 11:45:28;;;;;;;25.35;10.88;;;;;;;;;;4948889;28;20113;-75
2022/10/10 11:47:59;;;;;;;24.58;11.25;;;;;;;;;;4949211;28;20584;-81
2022/10/10 11:50:28;;;;;;;21.05;10.63;;;;;;;;;;4949515;28;20054;-76
2022/10/10 11:52:59;;;;;;;29.67;11.18;;;;;;;;;;4962404;28;20066;-75
2022/10/10 11:55:29;;;;;;;25.55;10.93;;;;;;;;;;4948479;28;20057;-75
2022/10/10 11:57:59;;;;;;;32.53;11.70;;;;;;;;;;4946113;28;20050;-74
2022/10/10 12:00:29;;;;;;;21.08;11.55;;;;;;;;;;4950500;28;20058;-74
2022/10/10 12:02:57;;;;;;;28.63;11.98;;;;;;;;;;4966687;28;20508;-74
2022/10/10 12:05:25;;;;;;;22.52;9.60;;;;;;;;;;4966531;28;20054;-74
2022/10/10 12:08:05;;;;;;;20.20;7.47;;;;;;;;;;4948758;28;20043;-73
2022/10/10 12:10:33;;;;;;;16.80;4.80;;;;;;;;;;4949159;28;20058;-74
2022/10/10 12:13:06;;;;;;;17.23;4.25;;;;;;;;;;4965865;28;20050;-73
2022/10/10 12:15:35;;;;;;;12.30;3.28;;;;;;;;;;4960784;28;20513;-73
2022/10/10 12:18:02;;;;;;;17.45;3.42;;;;;;;;;;4966331;28;20054;-72
2022/10/10 12:20:32;;;;;;;14.55;2.83;;;;;;;;;;4965876;28;20055;-72
2022/10/10 12:23:11;;;;;;;7.28;2.50;;;;;;;;;;4964863;28;20047;-72
2022/10/10 12:25:41;;;;;;;13.57;2.60;;;;;;;;;;4950430;28;20075;-73
2022/10/10 12:28:24;;;;;;;14.15;2.45;;;;;;;;;;4965826;28;20780;-74
2022/10/10 12:31:06;;;;;;;12.95;1.83;;;;;;;;;;4941163;28;20504;-74
2022/10/10 12:33:48;;;;;;;12.63;1.40;;;;;;;;;;4948034;28;20053;-74
2022/10/10 12:36:39;;;;;;;13.30;1.55;;;;;;;;;;4947688;28;20054;-74
2022/10/10 12:39:25;;;;;;;15.80;1.67;;;;;;;;;;4934890;28;20053;-75
2022/10/10 12:41:56;;;;;;;22.70;1.83;;;;;;;;;;4947063;28;20050;-75
2022/10/10 12:44:26;;;;;;;23.40;2.00;;;;;;;;;;4949059;28;20156;-75
2022/10/10 12:47:08;;;;;;;31.70;2.30;;;;;;;;;;4964266;28;20625;-75
2022/10/10 12:49:35;;;;;;;25.15;2.63;;;;;;;;;;4963297;28;20051;-75
2022/10/10 12:52:05;;;;;;;16.77;2.33;;;;;;;;;;4947133;28;20055;-75
2022/10/10 12:54:38;;;;;;;22.83;2.33;;;;;;;;;;4945353;28;20059;-75
2022/10/10 12:57:09;;;;;;;17.08;2.30;;;;;;;;;;4946793;28;20054;-75
2022/10/10 12:59:39;;;;;;;20.13;2.08;;;;;;;;;;4948147;28;20559;-75
2022/10/10 13:02:10;;;;;;;15.43;2.05;;;;;;;;;;4950161;28;20059;-76
2022/10/10 13:04:41;;;;;;;21.65;1.65;;;;;;;;;;4948094;28;20058;-76
2022/10/10 13:07:13;;;;;;;25.08;2.25;;;;;;;;;;4963520;28;20082;-76
2022/10/10 13:09:41;;;;;;;23.00;1.90;;;;;;;;;;4947307;28;20059;-75
2022/10/10 13:12:21;;;;;;;42.20;2.42;;;;;;;;;;4960865;28;20085;-76
2022/10/10 13:14:50;;;;;;;43.28;2.55;;;;;;;;;;4950494;28;20425;-76
2022/10/10 13:17:24;;;;;;;21.05;1.88;;;;;;;;;;4948554;28;20722;-76
2022/10/10 13:19:52;;;;;;;27.40;2.42;;;;;;;;;;4946125;28;20050;-76
2022/10/10 13:22:20;;;;;;;24.05;2.38;;;;;;;;;;4947790;28;20101;-76
2022/10/10 13:24:48;;;;;;;27.25;2.63;;;;;;;;;;4946860;28;20073;-76
2022/10/10 13:27:17;;;;;;;26.42;2.33;;;;;;;;;;4945490;28;20046;-76
2022/10/10 13:29:44;;;;;;;24.48;2.45;;;;;;;;;;4947070;28;20093;-76
2022/10/10 13:32:15;;;;;;;19.52;2.28;;;;;;;;;;4949545;28;20055;-77
2022/10/10 13:34:44;;;;;;;25.85;3.80;;;;;;;;;;4944560;28;20051;-77
2022/10/10 13:37:14;;;;;;;20.15;2.65;;;;;;;;;;4948791;28;20042;-77
2022/10/10 13:39:41;;;;;;;23.77;2.47;;;;;;;;;;4944640;28;20051;-78
2022/10/10 13:42:18;;;;;;;22.40;2.72;;;;;;;;;;4950089;28;20050;-78
2022/10/10 13:44:49;;;;;;;21.70;2.53;;;;;;;;;;4930927;28;20051;-78
2022/10/10 13:47:49;;;;;;;29.63;2.47;;;;;;;;;;4964517;28;20555;-78
2022/10/10 13:50:22;;;;;;;18.38;2.20;;;;;;;;;;4847034;29;20057;-78
2022/10/10 13:52:50;;;;;;;28.42;3.15;;;;;;;;;;4868420;29;20053;-78
2022/10/10 13:55:24;;;;;;;27.13;3.65;;;;;;;;;;4899681;28;20054;-77
2022/10/10 13:57:51;;;;;;;19.98;2.70;;;;;;;;;;4942273;28;20450;-79
2022/10/10 14:00:19;;;;;;;24.98;3.25;;;;;;;;;;4946564;28;20062;-78
2022/10/10 14:02:46;;;;;;;17.05;2.58;;;;;;;;;;4949812;28;20046;-77
2022/10/10 14:05:16;;;;;;;16.70;2.38;;;;;;;;;;4948047;28;20062;-78
2022/10/10 14:07:49;;;;;;;15.15;2.55;;;;;;;;;;4949644;28;20882;-77
2022/10/10 14:10:18;;;;;;;17.27;2.47;;;;;;;;;;4949494;28;20714;-79
2022/10/10 14:12:50;;;;;;;22.60;2.67;;;;;;;;;;4948899;28;20050;-77
2022/10/10 14:15:37;;;;;;;20.33;2.63;;;;;;;;;;4951229;28;20588;-77
2022/10/10 14:18:14;;;;;;;14.30;2.67;;;;;;;;;;4950462;28;20054;-78
2022/10/10 14:20:41;;;;;;;17.42;2.13;;;;;;;;;;4949541;28;20053;-77
2022/10/10 14:23:10;;;;;;;12.45;2.78;;;;;;;;;;4949597;28;20055;-77
2022/10/10 14:25:38;;;;;;;11.70;2.03;;;;;;;;;;4949816;28;20050;-76
2022/10/10 14:28:05;;;;;;;17.85;2.83;;;;;;;;;;4964717;28;20051;-76
2022/10/10 14:30:34;;;;;;;13.02;2.17;;;;;;;;;;4951392;28;20063;-77
2022/10/10 14:33:02;;;;;;;13.88;2.33;;;;;;;;;;4948734;28;20053;-77
2022/10/10 14:35:29;;;;;;;15.35;3.25;;;;;;;;;;4951390;28;20063;-77
2022/10/10 14:37:56;;;;;;;20.70;2.88;;;;;;;;;;4948096;28;20065;-77
2022/10/10 14:40:25;;;;;;;17.70;2.45;;;;;;;;;;4948687;28;20043;-76
2022/10/10 14:42:52;;;;;;;18.77;2.47;;;;;;;;;;4965502;28;20051;-76
2022/10/10 14:45:20;;;;;;;12.63;1.95;;;;;;;;;;4951122;28;20065;-76
2022/10/10 14:47:47;;;;;;;17.15;2.72;;;;;;;;;;4948412;28;20488;-76